sensor_id;sensor_type;location;lat;lon;timestamp;temperature;humidity
11304;DHT22;5707;49.588;12.148;2023-02-01T00:00:15;2.80;99.90
11304;DHT22;5707;49.588;12.148;2023-02-01T00:02:41;2.80;99.90
11304;DHT22;5707;49.588;12.148;2023-02-01T00:05:08;2.80;99.90
11304;DHT22;5707;49.588;12.148;2023-02-01T00:07:34;2.80;99.90
11304;DHT22;5707;49.588;12.148;2023-02-01T00:10:00;2.80;99.90
11304;DHT22;5707;49.588;12.148;2023-02-01T00:12:26;2.80;99.90
11304;DHT22;5707;49.588;12.148;2023-02-01T00:14:51;2.80;99.90
11304;DHT22;5707;49.588;12.148;2023-02-01T00:17:17;2.70;99.90
11304;DHT22;5707;49.588;12.148;2023-02-01T00:19:43;2.70;99.90
11304;DHT22;5707;49.588;12.148;2023-02-01T00:22:08;2.70;99.90
11304;DHT22;5707;49.588;12.148;2023-02-01T00:24:34;2.70;99.90
11304;DHT22;5707;49.588;12.148;2023-02-01T00:26:59;2.60;99.90
11304;DHT22;5707;49.588;12.148;2023-02-01T00:29:25;2.70;99.90
11304;DHT22;5707;49.588;12.148;2023-02-01T00:31:51;2.70;99.90
11304;DHT22;5707;49.588;12.148;2023-02-01T00:34:18;2.70;99.90
11304;DHT22;5707;49.588;12.148;2023-02-01T00:36:44;2.70;99.90
11304;DHT22;5707;49.588;12.148;2023-02-01T00:39:10;2.70;99.90
11304;DHT22;5707;49.588;12.148;2023-02-01T00:41:36;2.70;99.90
11304;DHT22;5707;49.588;12.148;2023-02-01T00:44:02;2.70;99.90
11304;DHT22;5707;49.588;12.148;2023-02-01T00:46:27;2.70;99.90
11304;DHT22;5707;49.588;12.148;2023-02-01T00:48:53;2.70;99.90
11304;DHT22;5707;49.588;12.148;2023-02-01T00:51:22;2.70;99.90
11304;DHT22;5707;49.588;12.148;2023-02-01T00:53:49;2.70;99.90
11304;DHT22;5707;49.588;12.148;2023-02-01T00:56:15;2.70;99.90
11304;DHT22;5707;49.588;12.148;2023-02-01T00:58:41;2.70;99.90
11304;DHT22;5707;49.588;12.148;2023-02-01T01:01:11;2.70;99.90
11304;DHT22;5707;49.588;12.148;2023-02-01T01:03:42;2.70;99.90
11304;DHT22;5707;49.588;12.148;2023-02-01T01:06:13;2.70;99.90
11304;DHT22;5707;49.588;12.148;2023-02-01T01:08:40;2.70;99.90
11304;DHT22;5707;49.588;12.148;2023-02-01T01:11:14;2.70;99.90
11304;DHT22;5707;49.588;12.148;2023-02-01T01:13:41;2.70;99.90
11304;DHT22;5707;49.588;12.148;2023-02-01T01:16:07;2.80;99.90
11304;DHT22;5707;49.588;12.148;2023-02-01T01:18:34;2.80;99.90
11304;DHT22;5707;49.588;12.148;2023-02-01T01:21:01;2.80;99.90
11304;DHT22;5707;49.588;12.148;2023-02-01T01:23:27;2.80;99.90
11304;DHT22;5707;49.588;12.148;2023-02-01T01:25:52;2.90;99.90
11304;DHT22;5707;49.588;12.148;2023-02-01T01:28:18;2.80;99.90
11304;DHT22;5707;49.588;12.148;2023-02-01T01:30:44;2.80;99.90
11304;DHT22;5707;49.588;12.148;2023-02-01T01:33:09;2.80;99.90
11304;DHT22;5707;49.588;12.148;2023-02-01T01:35:35;2.80;99.90
11304;DHT22;5707;49.588;12.148;2023-02-01T01:38:01;2.80;99.90
11304;DHT22;5707;49.588;12.148;2023-02-01T01:40:28;2.70;99.90
11304;DHT22;5707;49.588;12.148;2023-02-01T01:42:55;2.70;99.90
11304;DHT22;5707;49.588;12.148;2023-02-01T01:47:59;2.70;99.90
11304;DHT22;5707;49.588;12.148;2023-02-01T01:50:32;2.70;99.90
11304;DHT22;5707;49.588;12.148;2023-02-01T01:53:01;2.70;99.90
11304;DHT22;5707;49.588;12.148;2023-02-01T01:55:31;2.70;99.90
11304;DHT22;5707;49.588;12.148;2023-02-01T01:58:02;2.70;99.90
11304;DHT22;5707;49.588;12.148;2023-02-01T02:00:31;2.70;99.90
11304;DHT22;5707;49.588;12.148;2023-02-01T02:03:24;2.70;99.90
11304;DHT22;5707;49.588;12.148;2023-02-01T02:05:52;2.70;99.90
11304;DHT22;5707;49.588;12.148;2023-02-01T02:08:20;2.70;99.90
11304;DHT22;5707;49.588;12.148;2023-02-01T02:10:48;2.70;99.90
11304;DHT22;5707;49.588;12.148;2023-02-01T02:13:36;2.70;99.90
11304;DHT22;5707;49.588;12.148;2023-02-01T02:16:54;2.70;99.90
11304;DHT22;5707;49.588;12.148;2023-02-01T02:27:15;2.70;99.90
11304;DHT22;5707;49.588;12.148;2023-02-01T02:38:41;2.80;99.90
11304;DHT22;5707;49.588;12.148;2023-02-01T02:44:19;2.80;99.90
11304;DHT22;5707;49.588;12.148;2023-02-01T02:47:11;2.80;99.90
11304;DHT22;5707;49.588;12.148;2023-02-01T02:52:57;2.90;99.90
11304;DHT22;5707;49.588;12.148;2023-02-01T02:55:43;2.90;99.90
11304;DHT22;5707;49.588;12.148;2023-02-01T02:58:11;3.00;99.90
11304;DHT22;5707;49.588;12.148;2023-02-01T03:00:56;3.00;99.90
11304;DHT22;5707;49.588;12.148;2023-02-01T03:03:41;3.00;99.90
11304;DHT22;5707;49.588;12.148;2023-02-01T03:06:26;3.00;99.90
11304;DHT22;5707;49.588;12.148;2023-02-01T03:08:55;3.00;99.90
11304;DHT22;5707;49.588;12.148;2023-02-01T03:11:23;3.00;99.90
11304;DHT22;5707;49.588;12.148;2023-02-01T03:14:11;3.00;99.90
11304;DHT22;5707;49.588;12.148;2023-02-01T03:16:46;3.00;99.90
11304;DHT22;5707;49.588;12.148;2023-02-01T03:19:25;3.00;99.90
11304;DHT22;5707;49.588;12.148;2023-02-01T03:24:44;2.90;99.90
11304;DHT22;5707;49.588;12.148;2023-02-01T03:27:31;2.90;99.90
11304;DHT22;5707;49.588;12.148;2023-02-01T03:30:14;2.90;99.90
11304;DHT22;5707;49.588;12.148;2023-02-01T03:32:45;2.90;99.90
11304;DHT22;5707;49.588;12.148;2023-02-01T03:38:40;2.90;99.90
11304;DHT22;5707;49.588;12.148;2023-02-01T03:43:56;2.80;99.90
11304;DHT22;5707;49.588;12.148;2023-02-01T03:46:32;2.80;99.90
11304;DHT22;5707;49.588;12.148;2023-02-01T03:49:01;2.80;99.90
11304;DHT22;5707;49.588;12.148;2023-02-01T03:51:28;2.80;99.90
11304;DHT22;5707;49.588;12.148;2023-02-01T03:53:55;2.80;99.90
11304;DHT22;5707;49.588;12.148;2023-02-01T03:56:24;2.80;99.90
11304;DHT22;5707;49.588;12.148;2023-02-01T03:58:51;2.80;99.90
11304;DHT22;5707;49.588;12.148;2023-02-01T04:01:27;2.80;99.90
11304;DHT22;5707;49.588;12.148;2023-02-01T04:03:53;2.80;99.90
11304;DHT22;5707;49.588;12.148;2023-02-01T04:06:19;2.80;99.90
11304;DHT22;5707;49.588;12.148;2023-02-01T04:08:45;2.80;99.90
11304;DHT22;5707;49.588;12.148;2023-02-01T04:11:10;2.80;99.90
11304;DHT22;5707;49.588;12.148;2023-02-01T04:13:36;2.80;99.90
11304;DHT22;5707;49.588;12.148;2023-02-01T04:16:01;2.80;99.90
11304;DHT22;5707;49.588;12.148;2023-02-01T04:18:27;2.80;99.90
11304;DHT22;5707;49.588;12.148;2023-02-01T04:20:52;2.80;99.90
11304;DHT22;5707;49.588;12.148;2023-02-01T04:23:18;2.70;99.90
11304;DHT22;5707;49.588;12.148;2023-02-01T04:25:44;2.60;99.90
11304;DHT22;5707;49.588;12.148;2023-02-01T04:28:09;2.50;99.90
11304;DHT22;5707;49.588;12.148;2023-02-01T04:30:35;2.40;99.90
11304;DHT22;5707;49.588;12.148;2023-02-01T04:33:00;2.40;99.90
11304;DHT22;5707;49.588;12.148;2023-02-01T04:35:28;2.30;99.90
11304;DHT22;5707;49.588;12.148;2023-02-01T04:37:54;2.30;99.90
11304;DHT22;5707;49.588;12.148;2023-02-01T04:40:19;2.30;99.90
11304;DHT22;5707;49.588;12.148;2023-02-01T04:42:45;2.30;99.90
11304;DHT22;5707;49.588;12.148;2023-02-01T04:45:11;2.30;99.90
11304;DHT22;5707;49.588;12.148;2023-02-01T04:47:36;2.30;99.90
11304;DHT22;5707;49.588;12.148;2023-02-01T04:50:02;2.30;99.90
11304;DHT22;5707;49.588;12.148;2023-02-01T04:52:27;2.30;99.90
11304;DHT22;5707;49.588;12.148;2023-02-01T04:54:53;2.20;99.90
11304;DHT22;5707;49.588;12.148;2023-02-01T04:57:22;2.20;99.90
11304;DHT22;5707;49.588;12.148;2023-02-01T04:59:48;2.30;99.90
11304;DHT22;5707;49.588;12.148;2023-02-01T05:02:13;2.30;99.90
11304;DHT22;5707;49.588;12.148;2023-02-01T05:04:39;2.30;99.90
11304;DHT22;5707;49.588;12.148;2023-02-01T05:07:04;2.40;99.90
11304;DHT22;5707;49.588;12.148;2023-02-01T05:09:30;2.40;99.90
11304;DHT22;5707;49.588;12.148;2023-02-01T05:11:56;2.40;99.90
11304;DHT22;5707;49.588;12.148;2023-02-01T05:14:40;2.40;99.90
11304;DHT22;5707;49.588;12.148;2023-02-01T05:17:05;2.40;99.90
11304;DHT22;5707;49.588;12.148;2023-02-01T05:19:31;2.40;99.90
11304;DHT22;5707;49.588;12.148;2023-02-01T05:21:56;2.50;99.90
11304;DHT22;5707;49.588;12.148;2023-02-01T05:24:22;2.50;99.90
11304;DHT22;5707;49.588;12.148;2023-02-01T05:26:48;2.50;99.90
11304;DHT22;5707;49.588;12.148;2023-02-01T05:29:15;2.50;99.90
11304;DHT22;5707;49.588;12.148;2023-02-01T05:31:41;2.50;99.90
11304;DHT22;5707;49.588;12.148;2023-02-01T05:34:07;2.50;99.90
11304;DHT22;5707;49.588;12.148;2023-02-01T05:36:33;2.50;99.90
11304;DHT22;5707;49.588;12.148;2023-02-01T05:38:59;2.50;99.90
11304;DHT22;5707;49.588;12.148;2023-02-01T05:41:24;2.50;99.90
11304;DHT22;5707;49.588;12.148;2023-02-01T05:43:50;2.50;99.90
11304;DHT22;5707;49.588;12.148;2023-02-01T05:46:16;2.60;99.90
11304;DHT22;5707;49.588;12.148;2023-02-01T05:48:42;2.60;99.90
11304;DHT22;5707;49.588;12.148;2023-02-01T05:51:09;2.60;99.90
11304;DHT22;5707;49.588;12.148;2023-02-01T05:53:35;2.50;99.90
11304;DHT22;5707;49.588;12.148;2023-02-01T05:56:01;2.50;99.90
11304;DHT22;5707;49.588;12.148;2023-02-01T05:58:27;2.50;99.90
11304;DHT22;5707;49.588;12.148;2023-02-01T06:00:52;2.50;99.90
11304;DHT22;5707;49.588;12.148;2023-02-01T06:03:18;2.50;99.90
11304;DHT22;5707;49.588;12.148;2023-02-01T06:05:45;2.50;99.90
11304;DHT22;5707;49.588;12.148;2023-02-01T06:08:11;2.50;99.90
11304;DHT22;5707;49.588;12.148;2023-02-01T06:10:36;2.50;99.90
11304;DHT22;5707;49.588;12.148;2023-02-01T06:13:02;2.40;99.90
11304;DHT22;5707;49.588;12.148;2023-02-01T06:15:29;2.40;99.90
11304;DHT22;5707;49.588;12.148;2023-02-01T06:17:55;2.30;99.90
11304;DHT22;5707;49.588;12.148;2023-02-01T06:20:20;2.30;99.90
11304;DHT22;5707;49.588;12.148;2023-02-01T06:22:46;2.20;99.90
11304;DHT22;5707;49.588;12.148;2023-02-01T06:25:11;2.20;99.90
11304;DHT22;5707;49.588;12.148;2023-02-01T06:27:37;2.20;99.90
11304;DHT22;5707;49.588;12.148;2023-02-01T06:30:04;2.20;99.90
11304;DHT22;5707;49.588;12.148;2023-02-01T06:32:30;2.20;99.90
11304;DHT22;5707;49.588;12.148;2023-02-01T06:34:55;2.20;99.90
11304;DHT22;5707;49.588;12.148;2023-02-01T06:37:22;2.20;99.90
11304;DHT22;5707;49.588;12.148;2023-02-01T06:39:50;2.20;99.90
11304;DHT22;5707;49.588;12.148;2023-02-01T06:42:15;2.10;99.90
11304;DHT22;5707;49.588;12.148;2023-02-01T06:44:41;2.20;99.90
11304;DHT22;5707;49.588;12.148;2023-02-01T06:47:07;2.20;99.90
11304;DHT22;5707;49.588;12.148;2023-02-01T06:49:33;2.20;99.90
11304;DHT22;5707;49.588;12.148;2023-02-01T06:51:58;2.20;99.90
11304;DHT22;5707;49.588;12.148;2023-02-01T06:54:28;2.20;99.90
11304;DHT22;5707;49.588;12.148;2023-02-01T06:56:57;2.20;99.90
11304;DHT22;5707;49.588;12.148;2023-02-01T06:59:23;2.10;99.90
11304;DHT22;5707;49.588;12.148;2023-02-01T07:01:48;2.10;99.90
11304;DHT22;5707;49.588;12.148;2023-02-01T07:04:14;2.20;99.90
11304;DHT22;5707;49.588;12.148;2023-02-01T07:06:40;2.20;99.90
11304;DHT22;5707;49.588;12.148;2023-02-01T07:09:06;2.30;99.90
11304;DHT22;5707;49.588;12.148;2023-02-01T07:11:32;2.30;99.90
11304;DHT22;5707;49.588;12.148;2023-02-01T07:13:58;2.30;99.90
11304;DHT22;5707;49.588;12.148;2023-02-01T07:16:24;2.30;99.90
11304;DHT22;5707;49.588;12.148;2023-02-01T07:18:51;2.30;99.90
11304;DHT22;5707;49.588;12.148;2023-02-01T07:21:17;2.30;99.90
11304;DHT22;5707;49.588;12.148;2023-02-01T07:23:43;2.30;99.90
11304;DHT22;5707;49.588;12.148;2023-02-01T07:26:11;2.20;99.90
11304;DHT22;5707;49.588;12.148;2023-02-01T07:28:41;2.20;99.90
11304;DHT22;5707;49.588;12.148;2023-02-01T07:31:13;2.20;99.90
11304;DHT22;5707;49.588;12.148;2023-02-01T07:33:43;2.30;99.90
11304;DHT22;5707;49.588;12.148;2023-02-01T07:36:14;2.40;99.90
11304;DHT22;5707;49.588;12.148;2023-02-01T07:38:40;2.50;99.90
11304;DHT22;5707;49.588;12.148;2023-02-01T07:41:06;2.60;99.90
11304;DHT22;5707;49.588;12.148;2023-02-01T07:43:33;2.60;99.90
11304;DHT22;5707;49.588;12.148;2023-02-01T07:45:59;2.70;99.90
11304;DHT22;5707;49.588;12.148;2023-02-01T07:48:26;2.80;99.90
11304;DHT22;5707;49.588;12.148;2023-02-01T07:53:24;3.00;99.90
11304;DHT22;5707;49.588;12.148;2023-02-01T07:55:49;3.10;99.90
11304;DHT22;5707;49.588;12.148;2023-02-01T07:58:15;3.10;99.90
11304;DHT22;5707;49.588;12.148;2023-02-01T08:00:40;3.20;99.90
11304;DHT22;5707;49.588;12.148;2023-02-01T08:03:24;3.30;99.90
11304;DHT22;5707;49.588;12.148;2023-02-01T08:05:59;3.30;99.90
11304;DHT22;5707;49.588;12.148;2023-02-01T08:08:24;3.40;99.90
11304;DHT22;5707;49.588;12.148;2023-02-01T08:10:50;3.40;99.90
11304;DHT22;5707;49.588;12.148;2023-02-01T08:13:16;3.50;99.90
11304;DHT22;5707;49.588;12.148;2023-02-01T08:15:41;3.50;99.90
11304;DHT22;5707;49.588;12.148;2023-02-01T08:18:07;3.50;99.90
11304;DHT22;5707;49.588;12.148;2023-02-01T08:20:35;3.50;99.90
11304;DHT22;5707;49.588;12.148;2023-02-01T08:23:01;3.50;99.90
11304;DHT22;5707;49.588;12.148;2023-02-01T08:25:27;3.60;99.90
11304;DHT22;5707;49.588;12.148;2023-02-01T08:27:53;3.60;99.90
11304;DHT22;5707;49.588;12.148;2023-02-01T08:30:20;3.60;99.90
11304;DHT22;5707;49.588;12.148;2023-02-01T08:32:45;3.60;99.90
11304;DHT22;5707;49.588;12.148;2023-02-01T08:35:11;3.50;99.90
11304;DHT22;5707;49.588;12.148;2023-02-01T08:37:36;3.50;99.90
11304;DHT22;5707;49.588;12.148;2023-02-01T08:40:03;3.50;99.90
11304;DHT22;5707;49.588;12.148;2023-02-01T08:42:29;3.40;99.90
11304;DHT22;5707;49.588;12.148;2023-02-01T08:45:13;3.20;99.90
11304;DHT22;5707;49.588;12.148;2023-02-01T08:47:39;3.00;99.90
11304;DHT22;5707;49.588;12.148;2023-02-01T08:50:05;2.90;99.90
11304;DHT22;5707;49.588;12.148;2023-02-01T08:52:31;3.00;99.90
11304;DHT22;5707;49.588;12.148;2023-02-01T08:54:56;3.30;99.90
11304;DHT22;5707;49.588;12.148;2023-02-01T08:57:22;3.80;99.90
11304;DHT22;5707;49.588;12.148;2023-02-01T08:59:48;4.10;99.90
11304;DHT22;5707;49.588;12.148;2023-02-01T09:02:15;4.20;99.90
11304;DHT22;5707;49.588;12.148;2023-02-01T09:04:41;4.30;99.90
11304;DHT22;5707;49.588;12.148;2023-02-01T09:07:07;4.40;99.90
11304;DHT22;5707;49.588;12.148;2023-02-01T09:09:33;4.70;99.90
11304;DHT22;5707;49.588;12.148;2023-02-01T09:11:59;5.10;99.90
11304;DHT22;5707;49.588;12.148;2023-02-01T09:14:24;5.30;99.90
11304;DHT22;5707;49.588;12.148;2023-02-01T09:16:50;5.30;99.90
11304;DHT22;5707;49.588;12.148;2023-02-01T09:19:15;5.40;99.90
11304;DHT22;5707;49.588;12.148;2023-02-01T09:21:41;5.60;99.90
11304;DHT22;5707;49.588;12.148;2023-02-01T09:24:08;5.60;99.90
11304;DHT22;5707;49.588;12.148;2023-02-01T09:26:33;5.60;99.90
11304;DHT22;5707;49.588;12.148;2023-02-01T09:29:00;5.50;99.90
11304;DHT22;5707;49.588;12.148;2023-02-01T09:31:26;5.50;99.90
11304;DHT22;5707;49.588;12.148;2023-02-01T09:33:51;5.50;99.90
11304;DHT22;5707;49.588;12.148;2023-02-01T09:36:17;5.50;99.90
11304;DHT22;5707;49.588;12.148;2023-02-01T09:38:45;5.50;99.90
11304;DHT22;5707;49.588;12.148;2023-02-01T09:46:43;5.60;99.90
11304;DHT22;5707;49.588;12.148;2023-02-01T09:49:16;5.50;99.90
11304;DHT22;5707;49.588;12.148;2023-02-01T09:51:46;5.40;99.90
11304;DHT22;5707;49.588;12.148;2023-02-01T09:54:17;5.40;99.90
11304;DHT22;5707;49.588;12.148;2023-02-01T09:56:51;5.30;99.90
11304;DHT22;5707;49.588;12.148;2023-02-01T10:01:56;5.50;99.90
11304;DHT22;5707;49.588;12.148;2023-02-01T10:04:23;5.40;99.90
11304;DHT22;5707;49.588;12.148;2023-02-01T10:06:54;5.20;99.90
11304;DHT22;5707;49.588;12.148;2023-02-01T10:17:16;4.90;99.90
11304;DHT22;5707;49.588;12.148;2023-02-01T10:22:39;5.10;99.90
11304;DHT22;5707;49.588;12.148;2023-02-01T10:25:35;5.10;99.90
11304;DHT22;5707;49.588;12.148;2023-02-01T10:28:02;5.10;99.90
11304;DHT22;5707;49.588;12.148;2023-02-01T10:30:39;5.10;99.90
11304;DHT22;5707;49.588;12.148;2023-02-01T10:33:16;5.30;99.90
11304;DHT22;5707;49.588;12.148;2023-02-01T10:35:47;5.50;99.90
11304;DHT22;5707;49.588;12.148;2023-02-01T10:38:27;5.70;99.90
11304;DHT22;5707;49.588;12.148;2023-02-01T10:40:57;6.00;99.90
11304;DHT22;5707;49.588;12.148;2023-02-01T10:43:24;6.20;99.90
11304;DHT22;5707;49.588;12.148;2023-02-01T10:45:50;6.50;99.90
11304;DHT22;5707;49.588;12.148;2023-02-01T10:48:15;6.70;99.90
11304;DHT22;5707;49.588;12.148;2023-02-01T10:54:00;6.90;99.90
11304;DHT22;5707;49.588;12.148;2023-02-01T10:56:28;6.80;99.90
11304;DHT22;5707;49.588;12.148;2023-02-01T10:59:05;6.80;99.90
11304;DHT22;5707;49.588;12.148;2023-02-01T11:01:36;6.80;99.90
11304;DHT22;5707;49.588;12.148;2023-02-01T11:04:04;6.80;99.90
11304;DHT22;5707;49.588;12.148;2023-02-01T11:09:48;6.80;99.90
11304;DHT22;5707;49.588;12.148;2023-02-01T11:12:03;6.60;99.90
11304;DHT22;5707;49.588;12.148;2023-02-01T11:14:38;6.60;99.90
11304;DHT22;5707;49.588;12.148;2023-02-01T11:17:26;6.80;99.90
11304;DHT22;5707;49.588;12.148;2023-02-01T11:19:58;7.00;99.90
11304;DHT22;5707;49.588;12.148;2023-02-01T11:22:25;7.30;99.90
11304;DHT22;5707;49.588;12.148;2023-02-01T11:24:52;7.30;99.90
11304;DHT22;5707;49.588;12.148;2023-02-01T11:27:20;7.20;99.90
11304;DHT22;5707;49.588;12.148;2023-02-01T11:29:51;7.00;99.90
11304;DHT22;5707;49.588;12.148;2023-02-01T11:32:20;6.90;99.90
11304;DHT22;5707;49.588;12.148;2023-02-01T11:34:51;6.70;99.90
11304;DHT22;5707;49.588;12.148;2023-02-01T11:37:23;6.60;99.90
11304;DHT22;5707;49.588;12.148;2023-02-01T11:40:00;6.40;99.90
11304;DHT22;5707;49.588;12.148;2023-02-01T11:42:28;6.20;99.90
11304;DHT22;5707;49.588;12.148;2023-02-01T11:45:16;6.10;99.90
11304;DHT22;5707;49.588;12.148;2023-02-01T11:47:42;6.00;99.90
11304;DHT22;5707;49.588;12.148;2023-02-01T11:55:55;5.70;99.90
11304;DHT22;5707;49.588;12.148;2023-02-01T12:06:58;5.40;99.90
11304;DHT22;5707;49.588;12.148;2023-02-01T12:09:45;5.40;99.90
11304;DHT22;5707;49.588;12.148;2023-02-01T12:12:20;5.50;99.90
11304;DHT22;5707;49.588;12.148;2023-02-01T12:20:41;5.70;99.90
11304;DHT22;5707;49.588;12.148;2023-02-01T12:23:23;5.80;99.90
11304;DHT22;5707;49.588;12.148;2023-02-01T12:26:04;5.90;99.90
11304;DHT22;5707;49.588;12.148;2023-02-01T12:32:09;5.80;99.90
11304;DHT22;5707;49.588;12.148;2023-02-01T12:40:06;5.60;99.90
11304;DHT22;5707;49.588;12.148;2023-02-01T12:42:43;5.50;99.90
11304;DHT22;5707;49.588;12.148;2023-02-01T12:45:36;5.50;99.90
11304;DHT22;5707;49.588;12.148;2023-02-01T12:50:53;5.50;99.90
11304;DHT22;5707;49.588;12.148;2023-02-01T12:56:00;5.30;99.90
11304;DHT22;5707;49.588;12.148;2023-02-01T12:58:47;5.20;99.90
11304;DHT22;5707;49.588;12.148;2023-02-01T13:01:35;5.10;99.90
11304;DHT22;5707;49.588;12.148;2023-02-01T13:04:17;5.00;99.90
11304;DHT22;5707;49.588;12.148;2023-02-01T13:12:33;4.90;99.90
11304;DHT22;5707;49.588;12.148;2023-02-01T13:15:21;4.90;99.90
11304;DHT22;5707;49.588;12.148;2023-02-01T13:17:49;4.90;99.90
11304;DHT22;5707;49.588;12.148;2023-02-01T13:20:24;5.00;99.90
11304;DHT22;5707;49.588;12.148;2023-02-01T13:22:58;5.00;99.90
11304;DHT22;5707;49.588;12.148;2023-02-01T13:25:41;5.00;99.90
11304;DHT22;5707;49.588;12.148;2023-02-01T13:44:49;5.60;99.90
11304;DHT22;5707;49.588;12.148;2023-02-01T13:47:24;5.70;99.90
11304;DHT22;5707;49.588;12.148;2023-02-01T13:49:52;5.70;99.90
11304;DHT22;5707;49.588;12.148;2023-02-01T13:55:46;5.60;99.90
11304;DHT22;5707;49.588;12.148;2023-02-01T13:57:52;5.60;99.90
11304;DHT22;5707;49.588;12.148;2023-02-01T14:15:39;4.80;99.90
11304;DHT22;5707;49.588;12.148;2023-02-01T14:26:49;4.40;99.90
11304;DHT22;5707;49.588;12.148;2023-02-01T14:32:00;4.30;99.90
11304;DHT22;5707;49.588;12.148;2023-02-01T14:34:58;4.30;99.90
11304;DHT22;5707;49.588;12.148;2023-02-01T14:37:29;4.20;99.90
11304;DHT22;5707;49.588;12.148;2023-02-01T14:40:00;4.30;99.90
11304;DHT22;5707;49.588;12.148;2023-02-01T14:44:55;4.20;99.90
11304;DHT22;5707;49.588;12.148;2023-02-01T14:49:56;4.10;99.90
11304;DHT22;5707;49.588;12.148;2023-02-01T14:52:30;4.10;99.90
11304;DHT22;5707;49.588;12.148;2023-02-01T14:55:05;4.20;99.90
11304;DHT22;5707;49.588;12.148;2023-02-01T14:57:34;4.10;99.90
11304;DHT22;5707;49.588;12.148;2023-02-01T15:00:28;4.10;99.90
11304;DHT22;5707;49.588;12.148;2023-02-01T15:03:12;4.10;99.90
11304;DHT22;5707;49.588;12.148;2023-02-01T15:05:41;4.10;99.90
11304;DHT22;5707;49.588;12.148;2023-02-01T15:08:17;4.10;99.90
11304;DHT22;5707;49.588;12.148;2023-02-01T15:10:46;4.10;99.90
11304;DHT22;5707;49.588;12.148;2023-02-01T15:13:22;4.10;99.90
11304;DHT22;5707;49.588;12.148;2023-02-01T15:16:01;4.10;99.90
11304;DHT22;5707;49.588;12.148;2023-02-01T15:18:27;4.10;99.90
11304;DHT22;5707;49.588;12.148;2023-02-01T15:21:00;4.00;99.90
11304;DHT22;5707;49.588;12.148;2023-02-01T15:23:26;4.00;99.90
11304;DHT22;5707;49.588;12.148;2023-02-01T15:25:53;4.00;99.90
11304;DHT22;5707;49.588;12.148;2023-02-01T15:28:19;4.00;99.90
11304;DHT22;5707;49.588;12.148;2023-02-01T15:30:57;3.90;99.90
11304;DHT22;5707;49.588;12.148;2023-02-01T15:33:24;3.90;99.90
11304;DHT22;5707;49.588;12.148;2023-02-01T15:35:55;3.80;99.90
11304;DHT22;5707;49.588;12.148;2023-02-01T15:38:35;3.80;99.90
11304;DHT22;5707;49.588;12.148;2023-02-01T15:41:15;3.70;99.90
11304;DHT22;5707;49.588;12.148;2023-02-01T15:46:36;3.70;99.90
11304;DHT22;5707;49.588;12.148;2023-02-01T15:49:05;3.70;99.90
11304;DHT22;5707;49.588;12.148;2023-02-01T15:51:44;3.60;99.90
11304;DHT22;5707;49.588;12.148;2023-02-01T15:54:20;3.60;99.90
11304;DHT22;5707;49.588;12.148;2023-02-01T15:56:51;3.60;99.90
11304;DHT22;5707;49.588;12.148;2023-02-01T15:59:24;3.60;99.90
11304;DHT22;5707;49.588;12.148;2023-02-01T16:01:50;3.60;99.90
11304;DHT22;5707;49.588;12.148;2023-02-01T16:04:26;3.60;99.90
11304;DHT22;5707;49.588;12.148;2023-02-01T16:06:57;3.60;99.90
11304;DHT22;5707;49.588;12.148;2023-02-01T16:09:48;3.70;99.90
11304;DHT22;5707;49.588;12.148;2023-02-01T16:12:29;3.70;99.90
11304;DHT22;5707;49.588;12.148;2023-02-01T16:14:55;3.70;99.90
11304;DHT22;5707;49.588;12.148;2023-02-01T16:17:21;3.70;99.90
11304;DHT22;5707;49.588;12.148;2023-02-01T16:19:47;3.60;99.90
11304;DHT22;5707;49.588;12.148;2023-02-01T16:22:12;3.70;99.90
11304;DHT22;5707;49.588;12.148;2023-02-01T16:24:38;3.70;99.90
11304;DHT22;5707;49.588;12.148;2023-02-01T16:27:03;3.70;99.90
11304;DHT22;5707;49.588;12.148;2023-02-01T16:29:32;3.70;99.90
11304;DHT22;5707;49.588;12.148;2023-02-01T16:31:58;3.70;99.90
11304;DHT22;5707;49.588;12.148;2023-02-01T16:34:24;3.70;99.90
11304;DHT22;5707;49.588;12.148;2023-02-01T16:36:50;3.70;99.90
11304;DHT22;5707;49.588;12.148;2023-02-01T16:39:18;3.70;99.90
11304;DHT22;5707;49.588;12.148;2023-02-01T16:41:44;3.80;99.90
11304;DHT22;5707;49.588;12.148;2023-02-01T16:44:11;3.80;99.90
11304;DHT22;5707;49.588;12.148;2023-02-01T16:46:40;3.90;99.90
11304;DHT22;5707;49.588;12.148;2023-02-01T16:49:19;3.90;99.90
11304;DHT22;5707;49.588;12.148;2023-02-01T16:51:45;3.90;99.90
11304;DHT22;5707;49.588;12.148;2023-02-01T16:54:12;3.90;99.90
11304;DHT22;5707;49.588;12.148;2023-02-01T16:56:39;3.90;99.90
11304;DHT22;5707;49.588;12.148;2023-02-01T16:59:06;3.90;99.90
11304;DHT22;5707;49.588;12.148;2023-02-01T17:01:33;3.90;99.90
11304;DHT22;5707;49.588;12.148;2023-02-01T17:03:59;3.90;99.90
11304;DHT22;5707;49.588;12.148;2023-02-01T17:06:25;3.90;99.90
11304;DHT22;5707;49.588;12.148;2023-02-01T17:08:55;3.90;99.90
11304;DHT22;5707;49.588;12.148;2023-02-01T17:11:21;3.90;99.90
11304;DHT22;5707;49.588;12.148;2023-02-01T17:13:47;3.90;99.90
11304;DHT22;5707;49.588;12.148;2023-02-01T17:18:47;3.90;99.90
11304;DHT22;5707;49.588;12.148;2023-02-01T17:21:13;3.80;99.90
11304;DHT22;5707;49.588;12.148;2023-02-01T17:23:38;3.70;99.90
11304;DHT22;5707;49.588;12.148;2023-02-01T17:26:04;3.50;99.90
11304;DHT22;5707;49.588;12.148;2023-02-01T17:28:30;3.40;99.90
11304;DHT22;5707;49.588;12.148;2023-02-01T17:30:55;3.20;99.90
11304;DHT22;5707;49.588;12.148;2023-02-01T17:33:28;3.00;99.90
11304;DHT22;5707;49.588;12.148;2023-02-01T17:35:55;2.80;99.90
11304;DHT22;5707;49.588;12.148;2023-02-01T17:38:22;2.70;99.90
11304;DHT22;5707;49.588;12.148;2023-02-01T17:40:48;2.70;99.90
11304;DHT22;5707;49.588;12.148;2023-02-01T17:43:15;2.70;99.90
11304;DHT22;5707;49.588;12.148;2023-02-01T17:45:51;2.70;99.90
11304;DHT22;5707;49.588;12.148;2023-02-01T17:48:18;2.70;99.90
11304;DHT22;5707;49.588;12.148;2023-02-01T17:50:45;2.80;99.90
11304;DHT22;5707;49.588;12.148;2023-02-01T17:53:12;2.80;99.90
11304;DHT22;5707;49.588;12.148;2023-02-01T17:55:41;2.90;99.90
11304;DHT22;5707;49.588;12.148;2023-02-01T17:58:09;2.90;99.90
11304;DHT22;5707;49.588;12.148;2023-02-01T18:00:35;2.90;99.90
11304;DHT22;5707;49.588;12.148;2023-02-01T18:03:01;2.90;99.90
11304;DHT22;5707;49.588;12.148;2023-02-01T18:05:40;2.80;99.90
11304;DHT22;5707;49.588;12.148;2023-02-01T18:08:07;2.90;99.90
11304;DHT22;5707;49.588;12.148;2023-02-01T18:10:34;2.90;99.90
11304;DHT22;5707;49.588;12.148;2023-02-01T18:13:03;2.80;99.90
11304;DHT22;5707;49.588;12.148;2023-02-01T18:15:29;2.90;99.90
11304;DHT22;5707;49.588;12.148;2023-02-01T18:17:55;2.90;99.90
11304;DHT22;5707;49.588;12.148;2023-02-01T18:20:23;2.90;99.90
11304;DHT22;5707;49.588;12.148;2023-02-01T18:22:49;3.00;99.90
11304;DHT22;5707;49.588;12.148;2023-02-01T18:25:18;3.00;99.90
11304;DHT22;5707;49.588;12.148;2023-02-01T18:27:46;3.10;99.90
11304;DHT22;5707;49.588;12.148;2023-02-01T18:30:12;3.20;99.90
11304;DHT22;5707;49.588;12.148;2023-02-01T18:32:38;3.20;99.90
11304;DHT22;5707;49.588;12.148;2023-02-01T18:35:19;3.20;99.90
11304;DHT22;5707;49.588;12.148;2023-02-01T18:37:46;3.20;99.90